sensor_id;sensor_type;location;lat;lon;timestamp;temperature;humidity
52965;DHT22;42923;53.220;6.528;2023-11-19T00:00:31;11.30;99.90
52965;DHT22;42923;53.220;6.528;2023-11-19T00:02:57;11.30;99.90
52965;DHT22;42923;53.220;6.528;2023-11-19T00:05:23;11.40;99.90
52965;DHT22;42923;53.220;6.528;2023-11-19T00:07:48;11.40;99.90
52965;DHT22;42923;53.220;6.528;2023-11-19T00:10:15;11.50;99.90
52965;DHT22;42923;53.220;6.528;2023-11-19T00:12:45;11.60;99.90
52965;DHT22;42923;53.220;6.528;2023-11-19T00:15:13;11.50;99.90
52965;DHT22;42923;53.220;6.528;2023-11-19T00:17:43;11.70;99.90
52965;DHT22;42923;53.220;6.528;2023-11-19T00:20:19;11.70;99.90
52965;DHT22;42923;53.220;6.528;2023-11-19T00:22:47;12.00;99.90
52965;DHT22;42923;53.220;6.528;2023-11-19T00:25:17;11.80;99.90
52965;DHT22;42923;53.220;6.528;2023-11-19T00:27:43;11.80;99.90
52965;DHT22;42923;53.220;6.528;2023-11-19T00:30:12;11.90;99.90
52965;DHT22;42923;53.220;6.528;2023-11-19T00:32:39;11.90;99.90
52965;DHT22;42923;53.220;6.528;2023-11-19T00:35:08;12.00;99.90
52965;DHT22;42923;53.220;6.528;2023-11-19T00:37:35;12.00;99.90
52965;DHT22;42923;53.220;6.528;2023-11-19T00:40:01;12.30;99.90
52965;DHT22;42923;53.220;6.528;2023-11-19T00:42:31;12.00;99.90
52965;DHT22;42923;53.220;6.528;2023-11-19T00:44:56;12.10;99.90
52965;DHT22;42923;53.220;6.528;2023-11-19T00:47:23;12.10;99.90
52965;DHT22;42923;53.220;6.528;2023-11-19T00:49:49;12.10;99.90
52965;DHT22;42923;53.220;6.528;2023-11-19T00:52:16;12.10;99.90
52965;DHT22;42923;53.220;6.528;2023-11-19T00:54:42;12.10;99.90
52965;DHT22;42923;53.220;6.528;2023-11-19T00:57:08;12.10;99.90
52965;DHT22;42923;53.220;6.528;2023-11-19T00:59:34;12.20;99.90
52965;DHT22;42923;53.220;6.528;2023-11-19T01:01:59;12.20;99.90
52965;DHT22;42923;53.220;6.528;2023-11-19T01:04:35;12.20;99.90
52965;DHT22;42923;53.220;6.528;2023-11-19T01:07:02;12.20;99.90
52965;DHT22;42923;53.220;6.528;2023-11-19T01:09:38;12.20;99.90
52965;DHT22;42923;53.220;6.528;2023-11-19T01:12:04;12.30;99.90
52965;DHT22;42923;53.220;6.528;2023-11-19T01:14:30;12.20;99.90
52965;DHT22;42923;53.220;6.528;2023-11-19T01:16:56;12.20;99.90
52965;DHT22;42923;53.220;6.528;2023-11-19T01:19:22;12.20;99.90
52965;DHT22;42923;53.220;6.528;2023-11-19T01:21:52;12.20;99.90
52965;DHT22;42923;53.220;6.528;2023-11-19T01:24:19;12.20;99.90
52965;DHT22;42923;53.220;6.528;2023-11-19T01:26:45;12.20;99.90
52965;DHT22;42923;53.220;6.528;2023-11-19T01:29:12;12.20;99.90
52965;DHT22;42923;53.220;6.528;2023-11-19T01:31:46;12.20;99.90
52965;DHT22;42923;53.220;6.528;2023-11-19T01:34:16;12.20;99.90
52965;DHT22;42923;53.220;6.528;2023-11-19T01:36:42;12.20;99.90
52965;DHT22;42923;53.220;6.528;2023-11-19T01:39:08;12.20;99.90
52965;DHT22;42923;53.220;6.528;2023-11-19T01:41:37;12.20;99.90
52965;DHT22;42923;53.220;6.528;2023-11-19T01:44:06;12.20;99.90
52965;DHT22;42923;53.220;6.528;2023-11-19T01:46:32;12.30;99.90
52965;DHT22;42923;53.220;6.528;2023-11-19T01:49:00;12.20;99.90
52965;DHT22;42923;53.220;6.528;2023-11-19T01:51:27;12.20;99.90
52965;DHT22;42923;53.220;6.528;2023-11-19T01:53:53;12.20;99.90
52965;DHT22;42923;53.220;6.528;2023-11-19T01:56:20;12.20;99.90
52965;DHT22;42923;53.220;6.528;2023-11-19T01:58:48;12.10;99.90
52965;DHT22;42923;53.220;6.528;2023-11-19T02:01:16;12.20;99.90
52965;DHT22;42923;53.220;6.528;2023-11-19T02:03:43;12.10;99.90
52965;DHT22;42923;53.220;6.528;2023-11-19T02:06:08;12.10;99.90
52965;DHT22;42923;53.220;6.528;2023-11-19T02:08:36;12.10;99.90
52965;DHT22;42923;53.220;6.528;2023-11-19T02:11:02;12.10;99.90
52965;DHT22;42923;53.220;6.528;2023-11-19T02:13:29;12.10;99.90
52965;DHT22;42923;53.220;6.528;2023-11-19T02:15:55;12.10;99.90
52965;DHT22;42923;53.220;6.528;2023-11-19T02:18:25;12.10;99.90
52965;DHT22;42923;53.220;6.528;2023-11-19T02:20:54;12.10;99.90
52965;DHT22;42923;53.220;6.528;2023-11-19T02:23:20;12.10;99.90
52965;DHT22;42923;53.220;6.528;2023-11-19T02:26:12;12.10;99.90
52965;DHT22;42923;53.220;6.528;2023-11-19T02:28:36;12.10;99.90
52965;DHT22;42923;53.220;6.528;2023-11-19T02:31:02;12.10;99.90
52965;DHT22;42923;53.220;6.528;2023-11-19T02:33:30;12.10;99.90
52965;DHT22;42923;53.220;6.528;2023-11-19T02:35:56;12.10;99.90
52965;DHT22;42923;53.220;6.528;2023-11-19T02:38:22;12.20;99.90
52965;DHT22;42923;53.220;6.528;2023-11-19T02:40:48;12.10;99.90
52965;DHT22;42923;53.220;6.528;2023-11-19T02:43:14;12.00;99.90
52965;DHT22;42923;53.220;6.528;2023-11-19T02:45:40;12.00;99.90
52965;DHT22;42923;53.220;6.528;2023-11-19T02:48:06;12.00;99.90
52965;DHT22;42923;53.220;6.528;2023-11-19T02:50:32;12.00;99.90
52965;DHT22;42923;53.220;6.528;2023-11-19T02:52:57;11.90;99.90
52965;DHT22;42923;53.220;6.528;2023-11-19T02:55:24;12.00;99.90
52965;DHT22;42923;53.220;6.528;2023-11-19T02:57:51;11.90;99.90
52965;DHT22;42923;53.220;6.528;2023-11-19T03:00:20;11.90;99.90
52965;DHT22;42923;53.220;6.528;2023-11-19T03:02:51;11.90;99.90
52965;DHT22;42923;53.220;6.528;2023-11-19T03:05:31;11.90;99.90
52965;DHT22;42923;53.220;6.528;2023-11-19T03:07:56;11.80;99.90
52965;DHT22;42923;53.220;6.528;2023-11-19T03:10:23;11.80;99.90
52965;DHT22;42923;53.220;6.528;2023-11-19T03:12:49;11.70;99.90
52965;DHT22;42923;53.220;6.528;2023-11-19T03:15:15;11.70;99.90
52965;DHT22;42923;53.220;6.528;2023-11-19T03:17:42;11.70;99.90
52965;DHT22;42923;53.220;6.528;2023-11-19T03:20:11;11.70;99.90
52965;DHT22;42923;53.220;6.528;2023-11-19T03:22:41;11.60;99.90
52965;DHT22;42923;53.220;6.528;2023-11-19T03:25:07;11.60;99.90
52965;DHT22;42923;53.220;6.528;2023-11-19T03:27:35;11.70;99.90
52965;DHT22;42923;53.220;6.528;2023-11-19T03:30:08;11.70;99.90
52965;DHT22;42923;53.220;6.528;2023-11-19T03:32:37;11.70;99.90
52965;DHT22;42923;53.220;6.528;2023-11-19T03:35:05;11.80;99.90
52965;DHT22;42923;53.220;6.528;2023-11-19T03:37:33;11.70;99.90
52965;DHT22;42923;53.220;6.528;2023-11-19T03:39:59;11.80;99.90
52965;DHT22;42923;53.220;6.528;2023-11-19T03:42:29;11.80;99.90
52965;DHT22;42923;53.220;6.528;2023-11-19T03:44:57;11.80;99.90
52965;DHT22;42923;53.220;6.528;2023-11-19T03:47:23;11.80;99.90
52965;DHT22;42923;53.220;6.528;2023-11-19T03:49:50;11.80;99.90
52965;DHT22;42923;53.220;6.528;2023-11-19T03:52:16;11.80;99.90
52965;DHT22;42923;53.220;6.528;2023-11-19T03:54:42;11.80;99.90
52965;DHT22;42923;53.220;6.528;2023-11-19T03:57:08;11.80;99.90
52965;DHT22;42923;53.220;6.528;2023-11-19T03:59:36;12.00;99.90
52965;DHT22;42923;53.220;6.528;2023-11-19T04:02:02;11.80;99.90
52965;DHT22;42923;53.220;6.528;2023-11-19T04:04:28;11.80;99.90
52965;DHT22;42923;53.220;6.528;2023-11-19T04:06:55;11.80;99.90
52965;DHT22;42923;53.220;6.528;2023-11-19T04:09:21;11.80;99.90
52965;DHT22;42923;53.220;6.528;2023-11-19T04:11:47;11.80;99.90
52965;DHT22;42923;53.220;6.528;2023-11-19T04:14:13;11.80;99.90
52965;DHT22;42923;53.220;6.528;2023-11-19T04:16:39;11.80;99.90
52965;DHT22;42923;53.220;6.528;2023-11-19T04:19:05;11.80;99.90
52965;DHT22;42923;53.220;6.528;2023-11-19T04:21:32;11.80;99.90
52965;DHT22;42923;53.220;6.528;2023-11-19T04:23:58;11.80;99.90
52965;DHT22;42923;53.220;6.528;2023-11-19T04:26:24;12.00;99.90
52965;DHT22;42923;53.220;6.528;2023-11-19T04:28:50;11.90;99.90
52965;DHT22;42923;53.220;6.528;2023-11-19T04:31:17;11.90;99.90
52965;DHT22;42923;53.220;6.528;2023-11-19T04:33:43;11.90;99.90
52965;DHT22;42923;53.220;6.528;2023-11-19T04:36:10;11.90;99.90
52965;DHT22;42923;53.220;6.528;2023-11-19T04:38:37;11.90;99.90
52965;DHT22;42923;53.220;6.528;2023-11-19T04:41:05;11.90;99.90
52965;DHT22;42923;53.220;6.528;2023-11-19T04:43:31;11.90;99.90
52965;DHT22;42923;53.220;6.528;2023-11-19T04:45:57;11.90;99.90
52965;DHT22;42923;53.220;6.528;2023-11-19T04:48:23;11.90;99.90
52965;DHT22;42923;53.220;6.528;2023-11-19T04:50:49;11.90;99.90
52965;DHT22;42923;53.220;6.528;2023-11-19T04:53:16;11.90;99.90
52965;DHT22;42923;53.220;6.528;2023-11-19T04:55:42;11.80;99.90
52965;DHT22;42923;53.220;6.528;2023-11-19T04:58:08;11.90;99.90
52965;DHT22;42923;53.220;6.528;2023-11-19T05:00:34;11.80;99.90
52965;DHT22;42923;53.220;6.528;2023-11-19T05:03:00;11.90;99.90
52965;DHT22;42923;53.220;6.528;2023-11-19T05:05:26;11.90;99.90
52965;DHT22;42923;53.220;6.528;2023-11-19T05:07:52;11.90;99.90
52965;DHT22;42923;53.220;6.528;2023-11-19T05:10:18;11.90;99.90
52965;DHT22;42923;53.220;6.528;2023-11-19T05:12:44;11.90;99.90
52965;DHT22;42923;53.220;6.528;2023-11-19T05:15:10;12.00;99.90
52965;DHT22;42923;53.220;6.528;2023-11-19T05:17:37;11.90;99.90
52965;DHT22;42923;53.220;6.528;2023-11-19T05:20:03;11.90;99.90
52965;DHT22;42923;53.220;6.528;2023-11-19T05:22:29;11.90;99.90
52965;DHT22;42923;53.220;6.528;2023-11-19T05:24:55;11.90;99.90
52965;DHT22;42923;53.220;6.528;2023-11-19T05:27:21;11.90;99.90
52965;DHT22;42923;53.220;6.528;2023-11-19T05:29:49;11.90;99.90
52965;DHT22;42923;53.220;6.528;2023-11-19T05:32:14;12.00;99.90
52965;DHT22;42923;53.220;6.528;2023-11-19T05:34:40;11.90;99.90
52965;DHT22;42923;53.220;6.528;2023-11-19T05:37:06;11.90;99.90
52965;DHT22;42923;53.220;6.528;2023-11-19T05:39:32;12.00;99.90
52965;DHT22;42923;53.220;6.528;2023-11-19T05:41:57;12.00;99.90
52965;DHT22;42923;53.220;6.528;2023-11-19T05:44:23;11.90;99.90
52965;DHT22;42923;53.220;6.528;2023-11-19T05:46:49;11.90;99.90
52965;DHT22;42923;53.220;6.528;2023-11-19T05:49:14;11.90;99.90
52965;DHT22;42923;53.220;6.528;2023-11-19T05:51:40;12.00;99.90
52965;DHT22;42923;53.220;6.528;2023-11-19T05:54:10;12.00;99.90
52965;DHT22;42923;53.220;6.528;2023-11-19T05:56:36;11.90;99.90
52965;DHT22;42923;53.220;6.528;2023-11-19T05:59:02;11.90;99.90
52965;DHT22;42923;53.220;6.528;2023-11-19T06:01:40;11.90;99.90
52965;DHT22;42923;53.220;6.528;2023-11-19T06:04:07;11.60;99.90
52965;DHT22;42923;53.220;6.528;2023-11-19T06:06:33;11.80;99.90
52965;DHT22;42923;53.220;6.528;2023-11-19T06:08:59;11.70;99.90
52965;DHT22;42923;53.220;6.528;2023-11-19T06:11:25;11.70;99.90
52965;DHT22;42923;53.220;6.528;2023-11-19T06:13:52;11.70;99.90
52965;DHT22;42923;53.220;6.528;2023-11-19T06:16:18;11.60;99.90
52965;DHT22;42923;53.220;6.528;2023-11-19T06:18:44;11.60;99.90
52965;DHT22;42923;53.220;6.528;2023-11-19T06:21:10;11.60;99.90
52965;DHT22;42923;53.220;6.528;2023-11-19T06:23:36;11.70;99.90
52965;DHT22;42923;53.220;6.528;2023-11-19T06:26:02;11.70;99.90
52965;DHT22;42923;53.220;6.528;2023-11-19T06:28:28;11.60;99.90
52965;DHT22;42923;53.220;6.528;2023-11-19T06:30:54;11.60;99.90
52965;DHT22;42923;53.220;6.528;2023-11-19T06:33:20;11.60;99.90
52965;DHT22;42923;53.220;6.528;2023-11-19T06:35:45;11.60;99.90
52965;DHT22;42923;53.220;6.528;2023-11-19T06:38:11;11.50;99.90
52965;DHT22;42923;53.220;6.528;2023-11-19T06:40:37;11.80;99.90
52965;DHT22;42923;53.220;6.528;2023-11-19T06:43:03;11.60;99.90
52965;DHT22;42923;53.220;6.528;2023-11-19T06:45:29;11.50;99.90
52965;DHT22;42923;53.220;6.528;2023-11-19T06:47:55;11.60;99.90
52965;DHT22;42923;53.220;6.528;2023-11-19T06:50:21;11.50;99.90
52965;DHT22;42923;53.220;6.528;2023-11-19T06:52:47;11.50;99.90
52965;DHT22;42923;53.220;6.528;2023-11-19T06:55:13;11.40;99.90
52965;DHT22;42923;53.220;6.528;2023-11-19T06:57:39;11.40;99.90
52965;DHT22;42923;53.220;6.528;2023-11-19T07:00:06;11.40;99.90
52965;DHT22;42923;53.220;6.528;2023-11-19T07:02:32;11.30;99.90
52965;DHT22;42923;53.220;6.528;2023-11-19T07:04:57;11.30;99.90
52965;DHT22;42923;53.220;6.528;2023-11-19T07:07:23;11.30;99.90
52965;DHT22;42923;53.220;6.528;2023-11-19T07:09:49;11.20;99.90
52965;DHT22;42923;53.220;6.528;2023-11-19T07:12:15;11.20;99.90
52965;DHT22;42923;53.220;6.528;2023-11-19T07:14:41;11.30;99.90
52965;DHT22;42923;53.220;6.528;2023-11-19T07:17:07;11.20;99.90
52965;DHT22;42923;53.220;6.528;2023-11-19T07:19:34;11.20;99.90
52965;DHT22;42923;53.220;6.528;2023-11-19T07:22:02;11.20;99.90
52965;DHT22;42923;53.220;6.528;2023-11-19T07:24:27;11.20;99.90
52965;DHT22;42923;53.220;6.528;2023-11-19T07:26:54;11.20;99.90
52965;DHT22;42923;53.220;6.528;2023-11-19T07:29:20;11.20;99.90
52965;DHT22;42923;53.220;6.528;2023-11-19T07:31:48;11.20;99.90
52965;DHT22;42923;53.220;6.528;2023-11-19T07:34:14;11.10;99.90
52965;DHT22;42923;53.220;6.528;2023-11-19T07:36:40;11.10;99.90
52965;DHT22;42923;53.220;6.528;2023-11-19T07:39:06;11.10;99.90
52965;DHT22;42923;53.220;6.528;2023-11-19T07:41:34;11.10;99.90
52965;DHT22;42923;53.220;6.528;2023-11-19T07:44:02;11.10;99.90
52965;DHT22;42923;53.220;6.528;2023-11-19T07:46:28;11.10;99.90
52965;DHT22;42923;53.220;6.528;2023-11-19T07:48:53;11.10;99.90
52965;DHT22;42923;53.220;6.528;2023-11-19T07:51:19;11.10;99.90
52965;DHT22;42923;53.220;6.528;2023-11-19T07:53:45;11.20;99.90
52965;DHT22;42923;53.220;6.528;2023-11-19T07:56:10;11.30;99.90
52965;DHT22;42923;53.220;6.528;2023-11-19T07:58:36;11.30;99.90
52965;DHT22;42923;53.220;6.528;2023-11-19T08:01:02;11.40;99.90
52965;DHT22;42923;53.220;6.528;2023-11-19T08:03:28;11.40;99.90
52965;DHT22;42923;53.220;6.528;2023-11-19T08:05:58;11.40;99.90
52965;DHT22;42923;53.220;6.528;2023-11-19T08:08:24;11.40;99.90
52965;DHT22;42923;53.220;6.528;2023-11-19T08:10:49;11.50;99.90
52965;DHT22;42923;53.220;6.528;2023-11-19T08:13:18;11.40;99.90
52965;DHT22;42923;53.220;6.528;2023-11-19T08:15:43;11.40;99.90
52965;DHT22;42923;53.220;6.528;2023-11-19T08:18:09;11.50;99.90
52965;DHT22;42923;53.220;6.528;2023-11-19T08:20:35;11.40;99.90
52965;DHT22;42923;53.220;6.528;2023-11-19T08:23:02;11.40;99.90
52965;DHT22;42923;53.220;6.528;2023-11-19T08:25:29;11.40;99.90
52965;DHT22;42923;53.220;6.528;2023-11-19T08:27:55;11.60;99.90
52965;DHT22;42923;53.220;6.528;2023-11-19T08:30:20;11.30;99.90
52965;DHT22;42923;53.220;6.528;2023-11-19T08:32:46;11.20;99.90
52965;DHT22;42923;53.220;6.528;2023-11-19T08:35:12;11.30;99.90
52965;DHT22;42923;53.220;6.528;2023-11-19T08:37:37;11.30;99.90
52965;DHT22;42923;53.220;6.528;2023-11-19T08:40:04;11.30;99.90
52965;DHT22;42923;53.220;6.528;2023-11-19T08:42:30;11.30;99.90
52965;DHT22;42923;53.220;6.528;2023-11-19T08:44:56;11.30;99.90
52965;DHT22;42923;53.220;6.528;2023-11-19T08:47:22;11.30;99.90
52965;DHT22;42923;53.220;6.528;2023-11-19T08:49:50;11.40;99.90
52965;DHT22;42923;53.220;6.528;2023-11-19T08:52:17;11.40;99.90
52965;DHT22;42923;53.220;6.528;2023-11-19T08:54:43;11.40;99.90
52965;DHT22;42923;53.220;6.528;2023-11-19T08:57:09;11.50;99.90
52965;DHT22;42923;53.220;6.528;2023-11-19T08:59:35;11.50;99.90
52965;DHT22;42923;53.220;6.528;2023-11-19T09:02:06;11.60;99.90
52965;DHT22;42923;53.220;6.528;2023-11-19T09:04:32;11.60;99.90
52965;DHT22;42923;53.220;6.528;2023-11-19T09:06:59;11.60;99.90
52965;DHT22;42923;53.220;6.528;2023-11-19T09:09:24;11.60;99.90
52965;DHT22;42923;53.220;6.528;2023-11-19T09:11:51;11.70;99.90
52965;DHT22;42923;53.220;6.528;2023-11-19T09:14:16;12.20;99.90
52965;DHT22;42923;53.220;6.528;2023-11-19T09:16:43;11.60;99.90
52965;DHT22;42923;53.220;6.528;2023-11-19T09:19:09;11.60;99.90
52965;DHT22;42923;53.220;6.528;2023-11-19T09:21:35;11.60;99.90
52965;DHT22;42923;53.220;6.528;2023-11-19T09:24:04;11.60;99.90
52965;DHT22;42923;53.220;6.528;2023-11-19T09:26:30;11.60;99.90
52965;DHT22;42923;53.220;6.528;2023-11-19T09:28:56;11.60;99.90
52965;DHT22;42923;53.220;6.528;2023-11-19T09:31:22;11.60;99.90
52965;DHT22;42923;53.220;6.528;2023-11-19T09:33:47;11.70;99.90
52965;DHT22;42923;53.220;6.528;2023-11-19T09:36:13;11.80;99.90
52965;DHT22;42923;53.220;6.528;2023-11-19T09:38:40;11.80;99.90
52965;DHT22;42923;53.220;6.528;2023-11-19T09:41:06;11.90;99.90
52965;DHT22;42923;53.220;6.528;2023-11-19T09:43:36;12.00;99.90
52965;DHT22;42923;53.220;6.528;2023-11-19T09:46:06;12.20;99.90
52965;DHT22;42923;53.220;6.528;2023-11-19T09:48:37;12.40;99.90
52965;DHT22;42923;53.220;6.528;2023-11-19T09:51:08;12.70;99.90
52965;DHT22;42923;53.220;6.528;2023-11-19T09:53:35;12.90;99.90
52965;DHT22;42923;53.220;6.528;2023-11-19T09:56:02;13.20;99.90
52965;DHT22;42923;53.220;6.528;2023-11-19T09:58:29;13.00;99.90
52965;DHT22;42923;53.220;6.528;2023-11-19T10:00:57;13.10;99.90
52965;DHT22;42923;53.220;6.528;2023-11-19T10:03:33;12.80;99.90
52965;DHT22;42923;53.220;6.528;2023-11-19T10:06:06;12.60;99.90
52965;DHT22;42923;53.220;6.528;2023-11-19T10:08:33;12.60;99.90
52965;DHT22;42923;53.220;6.528;2023-11-19T10:10:59;12.60;99.90
52965;DHT22;42923;53.220;6.528;2023-11-19T10:13:28;12.60;99.90
52965;DHT22;42923;53.220;6.528;2023-11-19T10:15:55;12.60;99.90
52965;DHT22;42923;53.220;6.528;2023-11-19T10:18:26;12.60;99.90
52965;DHT22;42923;53.220;6.528;2023-11-19T10:20:52;12.60;99.90
52965;DHT22;42923;53.220;6.528;2023-11-19T10:23:19;12.60;99.90
52965;DHT22;42923;53.220;6.528;2023-11-19T10:25:45;12.60;99.90
52965;DHT22;42923;53.220;6.528;2023-11-19T10:28:10;13.10;99.90
52965;DHT22;42923;53.220;6.528;2023-11-19T10:30:36;12.70;99.90
52965;DHT22;42923;53.220;6.528;2023-11-19T10:35:35;12.60;99.90
52965;DHT22;42923;53.220;6.528;2023-11-19T10:38:14;12.60;99.90
52965;DHT22;42923;53.220;6.528;2023-11-19T10:40:41;12.70;99.90
52965;DHT22;42923;53.220;6.528;2023-11-19T10:43:07;12.80;99.90
52965;DHT22;42923;53.220;6.528;2023-11-19T10:45:33;12.80;99.90
52965;DHT22;42923;53.220;6.528;2023-11-19T10:47:59;12.80;99.90
52965;DHT22;42923;53.220;6.528;2023-11-19T10:50:26;12.90;99.90
52965;DHT22;42923;53.220;6.528;2023-11-19T10:52:57;13.00;99.90
52965;DHT22;42923;53.220;6.528;2023-11-19T10:55:27;13.10;99.90
52965;DHT22;42923;53.220;6.528;2023-11-19T10:58:05;13.40;99.90
52965;DHT22;42923;53.220;6.528;2023-11-19T11:00:44;13.60;99.90
52965;DHT22;42923;53.220;6.528;2023-11-19T11:03:18;13.80;99.90
52965;DHT22;42923;53.220;6.528;2023-11-19T11:05:47;13.80;99.90
52965;DHT22;42923;53.220;6.528;2023-11-19T11:08:13;13.70;99.90
52965;DHT22;42923;53.220;6.528;2023-11-19T11:10:43;13.50;99.90
52965;DHT22;42923;53.220;6.528;2023-11-19T11:13:10;13.40;99.90
52965;DHT22;42923;53.220;6.528;2023-11-19T11:15:37;13.20;99.90
52965;DHT22;42923;53.220;6.528;2023-11-19T11:18:06;13.10;99.90
52965;DHT22;42923;53.220;6.528;2023-11-19T11:20:33;13.10;99.90
52965;DHT22;42923;53.220;6.528;2023-11-19T11:28:46;12.90;99.90
52965;DHT22;42923;53.220;6.528;2023-11-19T11:37:10;12.70;99.90
52965;DHT22;42923;53.220;6.528;2023-11-19T11:39:43;12.70;99.90
52965;DHT22;42923;53.220;6.528;2023-11-19T11:45:02;12.90;99.90
52965;DHT22;42923;53.220;6.528;2023-11-19T11:50:15;13.50;99.90
52965;DHT22;42923;53.220;6.528;2023-11-19T11:57:51;13.00;99.90
52965;DHT22;42923;53.220;6.528;2023-11-19T12:00:33;12.80;99.90
52965;DHT22;42923;53.220;6.528;2023-11-19T12:03:05;12.60;99.90
52965;DHT22;42923;53.220;6.528;2023-11-19T12:05:32;12.50;99.90
52965;DHT22;42923;53.220;6.528;2023-11-19T12:08:06;12.20;99.90
52965;DHT22;42923;53.220;6.528;2023-11-19T12:10:43;12.10;99.90
52965;DHT22;42923;53.220;6.528;2023-11-19T12:13:11;12.00;99.90
52965;DHT22;42923;53.220;6.528;2023-11-19T12:18:27;12.40;99.90
52965;DHT22;42923;53.220;6.528;2023-11-19T12:20:54;12.70;99.90
52965;DHT22;42923;53.220;6.528;2023-11-19T12:23:20;12.90;99.90
52965;DHT22;42923;53.220;6.528;2023-11-19T12:25:46;13.20;99.90
52965;DHT22;42923;53.220;6.528;2023-11-19T12:28:13;13.40;99.90
52965;DHT22;42923;53.220;6.528;2023-11-19T12:30:39;13.40;99.90
52965;DHT22;42923;53.220;6.528;2023-11-19T12:33:09;13.70;99.90
52965;DHT22;42923;53.220;6.528;2023-11-19T12:35:46;13.90;99.90
52965;DHT22;42923;53.220;6.528;2023-11-19T12:38:20;14.00;99.90
52965;DHT22;42923;53.220;6.528;2023-11-19T12:41:05;14.10;99.90
52965;DHT22;42923;53.220;6.528;2023-11-19T12:43:31;14.00;99.90
52965;DHT22;42923;53.220;6.528;2023-11-19T12:45:57;13.90;99.90
52965;DHT22;42923;53.220;6.528;2023-11-19T12:48:23;13.70;99.90
52965;DHT22;42923;53.220;6.528;2023-11-19T12:50:57;13.60;99.90
52965;DHT22;42923;53.220;6.528;2023-11-19T12:53:24;13.50;99.90
52965;DHT22;42923;53.220;6.528;2023-11-19T12:55:51;13.30;99.90
52965;DHT22;42923;53.220;6.528;2023-11-19T12:58:33;13.20;99.90
52965;DHT22;42923;53.220;6.528;2023-11-19T13:01:03;13.10;99.90
52965;DHT22;42923;53.220;6.528;2023-11-19T13:03:30;13.00;99.90
52965;DHT22;42923;53.220;6.528;2023-11-19T13:06:13;13.00;99.90
52965;DHT22;42923;53.220;6.528;2023-11-19T13:08:46;12.90;99.90
52965;DHT22;42923;53.220;6.528;2023-11-19T13:11:35;12.80;99.90
52965;DHT22;42923;53.220;6.528;2023-11-19T13:14:03;12.80;99.90
52965;DHT22;42923;53.220;6.528;2023-11-19T13:16:37;12.80;99.90
52965;DHT22;42923;53.220;6.528;2023-11-19T13:19:04;12.80;99.90
52965;DHT22;42923;53.220;6.528;2023-11-19T13:21:30;12.70;99.90
52965;DHT22;42923;53.220;6.528;2023-11-19T13:23:56;12.70;99.90
52965;DHT22;42923;53.220;6.528;2023-11-19T13:26:22;13.10;99.90
52965;DHT22;42923;53.220;6.528;2023-11-19T13:28:48;12.60;99.90
52965;DHT22;42923;53.220;6.528;2023-11-19T13:31:14;12.70;99.90
52965;DHT22;42923;53.220;6.528;2023-11-19T13:33:40;12.60;99.90
52965;DHT22;42923;53.220;6.528;2023-11-19T13:36:06;12.60;99.90
52965;DHT22;42923;53.220;6.528;2023-11-19T13:38:34;12.60;99.90
52965;DHT22;42923;53.220;6.528;2023-11-19T13:41:02;12.50;99.90
52965;DHT22;42923;53.220;6.528;2023-11-19T13:43:28;12.60;99.90
52965;DHT22;42923;53.220;6.528;2023-11-19T13:45:54;12.50;99.90
52965;DHT22;42923;53.220;6.528;2023-11-19T13:48:20;12.40;99.90
52965;DHT22;42923;53.220;6.528;2023-11-19T13:50:46;12.40;99.90
52965;DHT22;42923;53.220;6.528;2023-11-19T13:53:12;12.40;99.90
52965;DHT22;42923;53.220;6.528;2023-11-19T13:55:38;12.50;99.90
52965;DHT22;42923;53.220;6.528;2023-11-19T13:58:03;12.40;99.90
52965;DHT22;42923;53.220;6.528;2023-11-19T14:00:29;12.40;99.90
52965;DHT22;42923;53.220;6.528;2023-11-19T14:02:55;12.40;99.90
52965;DHT22;42923;53.220;6.528;2023-11-19T14:05:21;12.40;99.90
52965;DHT22;42923;53.220;6.528;2023-11-19T14:07:46;12.40;99.90
52965;DHT22;42923;53.220;6.528;2023-11-19T14:10:17;12.40;99.90
52965;DHT22;42923;53.220;6.528;2023-11-19T14:12:43;12.40;99.90
52965;DHT22;42923;53.220;6.528;2023-11-19T14:15:10;12.40;99.90
52965;DHT22;42923;53.220;6.528;2023-11-19T14:17:37;12.30;99.90
52965;DHT22;42923;53.220;6.528;2023-11-19T14:20:03;12.20;99.90
52965;DHT22;42923;53.220;6.528;2023-11-19T14:22:47;12.20;99.90
52965;DHT22;42923;53.220;6.528;2023-11-19T14:25:15;12.10;99.90
52965;DHT22;42923;53.220;6.528;2023-11-19T14:27:42;12.10;99.90
52965;DHT22;42923;53.220;6.528;2023-11-19T14:30:09;12.10;99.90
52965;DHT22;42923;53.220;6.528;2023-11-19T14:32:37;12.10;99.90
52965;DHT22;42923;53.220;6.528;2023-11-19T14:35:03;12.00;99.90
52965;DHT22;42923;53.220;6.528;2023-11-19T14:37:30;11.90;99.90
52965;DHT22;42923;53.220;6.528;2023-11-19T14:39:59;11.80;99.90
52965;DHT22;42923;53.220;6.528;2023-11-19T14:42:25;11.70;99.90
52965;DHT22;42923;53.220;6.528;2023-11-19T14:44:54;11.60;99.90
52965;DHT22;42923;53.220;6.528;2023-11-19T14:47:21;11.50;99.90
52965;DHT22;42923;53.220;6.528;2023-11-19T14:49:46;11.50;99.90
52965;DHT22;42923;53.220;6.528;2023-11-19T14:52:12;11.50;99.90
52965;DHT22;42923;53.220;6.528;2023-11-19T14:54:38;11.50;99.90
52965;DHT22;42923;53.220;6.528;2023-11-19T14:57:05;11.50;99.90
52965;DHT22;42923;53.220;6.528;2023-11-19T14:59:32;11.50;99.90
52965;DHT22;42923;53.220;6.528;2023-11-19T15:01:58;11.40;99.90
52965;DHT22;42923;53.220;6.528;2023-11-19T15:04:26;11.50;99.90
52965;DHT22;42923;53.220;6.528;2023-11-19T15:06:52;11.40;99.90
52965;DHT22;42923;53.220;6.528;2023-11-19T15:09:18;11.40;99.90
52965;DHT22;42923;53.220;6.528;2023-11-19T15:11:44;11.40;99.90
52965;DHT22;42923;53.220;6.528;2023-11-19T15:14:13;11.30;99.90
52965;DHT22;42923;53.220;6.528;2023-11-19T15:16:45;11.30;99.90
52965;DHT22;42923;53.220;6.528;2023-11-19T15:19:11;11.20;99.90
52965;DHT22;42923;53.220;6.528;2023-11-19T15:21:38;11.20;99.90
52965;DHT22;42923;53.220;6.528;2023-11-19T15:24:05;11.20;99.90
52965;DHT22;42923;53.220;6.528;2023-11-19T15:26:36;11.20;99.90
52965;DHT22;42923;53.220;6.528;2023-11-19T15:29:02;11.20;99.90
52965;DHT22;42923;53.220;6.528;2023-11-19T15:31:29;11.30;99.90
52965;DHT22;42923;53.220;6.528;2023-11-19T15:33:55;11.30;99.90
52965;DHT22;42923;53.220;6.528;2023-11-19T15:36:21;11.30;99.90
52965;DHT22;42923;53.220;6.528;2023-11-19T15:38:47;11.40;99.90
52965;DHT22;42923;53.220;6.528;2023-11-19T15:41:12;11.40;99.90
52965;DHT22;42923;53.220;6.528;2023-11-19T15:43:38;11.40;99.90
52965;DHT22;42923;53.220;6.528;2023-11-19T15:46:10;11.40;99.90
52965;DHT22;42923;53.220;6.528;2023-11-19T15:48:39;11.40;99.90
52965;DHT22;42923;53.220;6.528;2023-11-19T15:51:05;11.50;99.90
52965;DHT22;42923;53.220;6.528;2023-11-19T15:53:31;11.40;99.90
52965;DHT22;42923;53.220;6.528;2023-11-19T15:56:00;11.50;99.90
52965;DHT22;42923;53.220;6.528;2023-11-19T15:58:27;11.50;99.90